sensor_id;sensor_type;location;lat;lon;timestamp;temperature;humidity
67777;DHT22;54576;52.020;5.536;2024-01-15T00:01:36;2.00;99.90
67777;DHT22;54576;52.020;5.536;2024-01-15T00:04:02;2.00;99.90
67777;DHT22;54576;52.020;5.536;2024-01-15T00:06:28;2.00;99.90
67777;DHT22;54576;52.020;5.536;2024-01-15T00:08:54;2.00;99.90
67777;DHT22;54576;52.020;5.536;2024-01-15T00:11:20;1.90;99.90
67777;DHT22;54576;52.020;5.536;2024-01-15T00:13:45;1.90;99.90
67777;DHT22;54576;52.020;5.536;2024-01-15T00:16:11;1.90;99.90
67777;DHT22;54576;52.020;5.536;2024-01-15T00:18:40;1.80;99.90
67777;DHT22;54576;52.020;5.536;2024-01-15T00:21:05;1.80;99.90
67777;DHT22;54576;52.020;5.536;2024-01-15T00:23:31;1.80;99.90
67777;DHT22;54576;52.020;5.536;2024-01-15T00:25:56;1.70;99.90
67777;DHT22;54576;52.020;5.536;2024-01-15T00:28:22;1.70;99.90
67777;DHT22;54576;52.020;5.536;2024-01-15T00:30:47;1.70;99.90
67777;DHT22;54576;52.020;5.536;2024-01-15T00:33:13;1.60;99.90
67777;DHT22;54576;52.020;5.536;2024-01-15T00:35:40;1.60;99.90
67777;DHT22;54576;52.020;5.536;2024-01-15T00:38:06;1.60;99.90
67777;DHT22;54576;52.020;5.536;2024-01-15T00:40:31;1.60;99.90
67777;DHT22;54576;52.020;5.536;2024-01-15T00:42:57;1.50;99.90
67777;DHT22;54576;52.020;5.536;2024-01-15T00:45:22;1.50;99.90
67777;DHT22;54576;52.020;5.536;2024-01-15T00:47:48;1.50;99.90
67777;DHT22;54576;52.020;5.536;2024-01-15T00:50:14;1.50;99.90
67777;DHT22;54576;52.020;5.536;2024-01-15T00:52:40;1.40;99.90
67777;DHT22;54576;52.020;5.536;2024-01-15T00:55:06;1.40;99.90
67777;DHT22;54576;52.020;5.536;2024-01-15T00:57:32;1.40;99.90
67777;DHT22;54576;52.020;5.536;2024-01-15T00:59:58;1.40;99.90
67777;DHT22;54576;52.020;5.536;2024-01-15T01:02:23;1.40;99.90
67777;DHT22;54576;52.020;5.536;2024-01-15T01:04:49;1.40;99.90
67777;DHT22;54576;52.020;5.536;2024-01-15T01:07:15;1.40;99.90
67777;DHT22;54576;52.020;5.536;2024-01-15T01:09:40;1.40;99.90
67777;DHT22;54576;52.020;5.536;2024-01-15T01:12:06;1.40;99.90
67777;DHT22;54576;52.020;5.536;2024-01-15T01:14:32;1.40;99.90
67777;DHT22;54576;52.020;5.536;2024-01-15T01:17:00;1.50;99.90
67777;DHT22;54576;52.020;5.536;2024-01-15T01:19:26;1.50;99.90
67777;DHT22;54576;52.020;5.536;2024-01-15T01:21:51;1.50;99.90
67777;DHT22;54576;52.020;5.536;2024-01-15T01:24:17;1.50;99.90
67777;DHT22;54576;52.020;5.536;2024-01-15T01:26:45;1.50;99.90
67777;DHT22;54576;52.020;5.536;2024-01-15T01:29:12;1.50;99.90
67777;DHT22;54576;52.020;5.536;2024-01-15T01:31:45;1.50;99.90
67777;DHT22;54576;52.020;5.536;2024-01-15T01:34:14;1.40;99.90
67777;DHT22;54576;52.020;5.536;2024-01-15T01:36:40;1.40;99.90
67777;DHT22;54576;52.020;5.536;2024-01-15T01:39:05;1.40;99.90
67777;DHT22;54576;52.020;5.536;2024-01-15T01:41:31;1.40;99.90
67777;DHT22;54576;52.020;5.536;2024-01-15T01:43:57;1.40;99.90
67777;DHT22;54576;52.020;5.536;2024-01-15T01:46:23;1.40;99.90
67777;DHT22;54576;52.020;5.536;2024-01-15T01:48:49;1.30;99.90
67777;DHT22;54576;52.020;5.536;2024-01-15T01:51:18;1.30;99.90
67777;DHT22;54576;52.020;5.536;2024-01-15T01:53:44;1.30;99.90
67777;DHT22;54576;52.020;5.536;2024-01-15T01:56:11;1.30;99.90
67777;DHT22;54576;52.020;5.536;2024-01-15T01:58:37;1.30;99.90
67777;DHT22;54576;52.020;5.536;2024-01-15T02:01:02;1.30;99.90
67777;DHT22;54576;52.020;5.536;2024-01-15T02:03:29;1.20;99.90
67777;DHT22;54576;52.020;5.536;2024-01-15T02:05:56;1.20;99.90
67777;DHT22;54576;52.020;5.536;2024-01-15T02:08:22;1.10;99.90
67777;DHT22;54576;52.020;5.536;2024-01-15T02:10:47;1.10;99.90
67777;DHT22;54576;52.020;5.536;2024-01-15T02:13:13;1.10;99.90
67777;DHT22;54576;52.020;5.536;2024-01-15T02:15:39;1.10;99.90
67777;DHT22;54576;52.020;5.536;2024-01-15T02:18:06;1.10;99.90
67777;DHT22;54576;52.020;5.536;2024-01-15T02:20:35;1.10;99.90
67777;DHT22;54576;52.020;5.536;2024-01-15T02:23:14;1.20;99.90
67777;DHT22;54576;52.020;5.536;2024-01-15T02:25:46;1.20;99.90
67777;DHT22;54576;52.020;5.536;2024-01-15T02:28:14;1.30;99.90
67777;DHT22;54576;52.020;5.536;2024-01-15T02:30:41;1.40;99.90
67777;DHT22;54576;52.020;5.536;2024-01-15T02:33:08;1.40;99.90
67777;DHT22;54576;52.020;5.536;2024-01-15T02:35:34;1.50;99.90
67777;DHT22;54576;52.020;5.536;2024-01-15T02:38:02;1.50;99.90
67777;DHT22;54576;52.020;5.536;2024-01-15T02:40:28;1.50;99.90
67777;DHT22;54576;52.020;5.536;2024-01-15T02:42:53;1.60;99.90
67777;DHT22;54576;52.020;5.536;2024-01-15T02:45:20;1.60;99.90
67777;DHT22;54576;52.020;5.536;2024-01-15T02:47:46;1.60;99.90
67777;DHT22;54576;52.020;5.536;2024-01-15T02:50:11;1.60;99.90
67777;DHT22;54576;52.020;5.536;2024-01-15T02:52:37;1.70;99.90
67777;DHT22;54576;52.020;5.536;2024-01-15T02:55:02;1.70;99.90
67777;DHT22;54576;52.020;5.536;2024-01-15T02:57:28;1.70;99.90
67777;DHT22;54576;52.020;5.536;2024-01-15T02:59:56;1.80;99.90
67777;DHT22;54576;52.020;5.536;2024-01-15T03:02:22;1.80;99.90
67777;DHT22;54576;52.020;5.536;2024-01-15T03:04:47;1.80;99.90
67777;DHT22;54576;52.020;5.536;2024-01-15T03:07:13;1.80;99.90
67777;DHT22;54576;52.020;5.536;2024-01-15T03:09:39;1.80;99.90
67777;DHT22;54576;52.020;5.536;2024-01-15T03:12:05;1.70;99.90
67777;DHT22;54576;52.020;5.536;2024-01-15T03:14:30;1.70;99.90
67777;DHT22;54576;52.020;5.536;2024-01-15T03:16:56;1.70;99.90
67777;DHT22;54576;52.020;5.536;2024-01-15T03:19:22;1.60;99.90
67777;DHT22;54576;52.020;5.536;2024-01-15T03:21:47;1.60;99.90
67777;DHT22;54576;52.020;5.536;2024-01-15T03:24:13;1.60;99.90
67777;DHT22;54576;52.020;5.536;2024-01-15T03:26:38;1.50;99.90
67777;DHT22;54576;52.020;5.536;2024-01-15T03:29:04;1.50;99.90
67777;DHT22;54576;52.020;5.536;2024-01-15T03:31:30;1.40;99.90
67777;DHT22;54576;52.020;5.536;2024-01-15T03:33:56;1.40;99.90
67777;DHT22;54576;52.020;5.536;2024-01-15T03:36:22;1.40;99.90
67777;DHT22;54576;52.020;5.536;2024-01-15T03:38:47;1.30;99.90
67777;DHT22;54576;52.020;5.536;2024-01-15T03:41:13;1.30;99.90
67777;DHT22;54576;52.020;5.536;2024-01-15T03:43:39;1.30;99.90
67777;DHT22;54576;52.020;5.536;2024-01-15T03:46:05;1.20;99.90
67777;DHT22;54576;52.020;5.536;2024-01-15T03:48:30;1.20;99.90
67777;DHT22;54576;52.020;5.536;2024-01-15T03:50:56;1.20;99.90
67777;DHT22;54576;52.020;5.536;2024-01-15T03:53:22;1.20;99.90
67777;DHT22;54576;52.020;5.536;2024-01-15T03:55:47;1.20;99.90
67777;DHT22;54576;52.020;5.536;2024-01-15T03:58:13;1.20;99.90
67777;DHT22;54576;52.020;5.536;2024-01-15T04:00:40;1.20;99.90
67777;DHT22;54576;52.020;5.536;2024-01-15T04:03:06;1.30;99.90
67777;DHT22;54576;52.020;5.536;2024-01-15T04:05:31;1.30;99.90
67777;DHT22;54576;52.020;5.536;2024-01-15T04:07:57;1.40;99.90
67777;DHT22;54576;52.020;5.536;2024-01-15T04:10:22;1.40;99.90
67777;DHT22;54576;52.020;5.536;2024-01-15T04:12:48;1.50;99.90
67777;DHT22;54576;52.020;5.536;2024-01-15T04:15:16;1.50;99.90
67777;DHT22;54576;52.020;5.536;2024-01-15T04:17:42;1.60;99.90
67777;DHT22;54576;52.020;5.536;2024-01-15T04:20:08;1.70;99.90
67777;DHT22;54576;52.020;5.536;2024-01-15T04:22:35;1.70;99.90
67777;DHT22;54576;52.020;5.536;2024-01-15T04:25:01;1.70;99.90
67777;DHT22;54576;52.020;5.536;2024-01-15T04:27:27;1.70;99.90
67777;DHT22;54576;52.020;5.536;2024-01-15T04:29:53;1.70;99.90
67777;DHT22;54576;52.020;5.536;2024-01-15T04:32:19;1.70;99.90
67777;DHT22;54576;52.020;5.536;2024-01-15T04:34:44;1.70;99.90
67777;DHT22;54576;52.020;5.536;2024-01-15T04:37:10;1.60;99.90
67777;DHT22;54576;52.020;5.536;2024-01-15T04:39:35;1.60;99.90
67777;DHT22;54576;52.020;5.536;2024-01-15T04:42:01;1.60;99.90
67777;DHT22;54576;52.020;5.536;2024-01-15T04:44:27;1.50;99.90
67777;DHT22;54576;52.020;5.536;2024-01-15T04:46:52;1.40;99.90
67777;DHT22;54576;52.020;5.536;2024-01-15T04:49:18;1.40;99.90
67777;DHT22;54576;52.020;5.536;2024-01-15T04:51:43;1.30;99.90
67777;DHT22;54576;52.020;5.536;2024-01-15T04:54:09;1.30;99.90
67777;DHT22;54576;52.020;5.536;2024-01-15T04:56:34;1.30;99.90
67777;DHT22;54576;52.020;5.536;2024-01-15T04:59:00;1.20;99.90
67777;DHT22;54576;52.020;5.536;2024-01-15T05:01:29;1.20;99.90
67777;DHT22;54576;52.020;5.536;2024-01-15T05:03:55;1.20;99.90
67777;DHT22;54576;52.020;5.536;2024-01-15T05:06:20;1.10;99.90
67777;DHT22;54576;52.020;5.536;2024-01-15T05:08:46;1.10;99.90
67777;DHT22;54576;52.020;5.536;2024-01-15T05:11:11;1.10;99.90
67777;DHT22;54576;52.020;5.536;2024-01-15T05:13:37;1.10;99.90
67777;DHT22;54576;52.020;5.536;2024-01-15T05:16:03;1.10;99.90
67777;DHT22;54576;52.020;5.536;2024-01-15T05:18:28;1.10;99.90
67777;DHT22;54576;52.020;5.536;2024-01-15T05:20:54;1.10;99.90
67777;DHT22;54576;52.020;5.536;2024-01-15T05:23:19;1.20;99.90
67777;DHT22;54576;52.020;5.536;2024-01-15T05:25:45;1.20;99.90
67777;DHT22;54576;52.020;5.536;2024-01-15T05:28:11;1.20;99.90
67777;DHT22;54576;52.020;5.536;2024-01-15T05:30:37;1.30;99.90
67777;DHT22;54576;52.020;5.536;2024-01-15T05:33:02;1.30;99.90
67777;DHT22;54576;52.020;5.536;2024-01-15T05:35:28;1.40;99.90
67777;DHT22;54576;52.020;5.536;2024-01-15T05:37:54;1.40;99.90
67777;DHT22;54576;52.020;5.536;2024-01-15T05:40:19;1.40;99.90
67777;DHT22;54576;52.020;5.536;2024-01-15T05:42:45;1.50;99.90
67777;DHT22;54576;52.020;5.536;2024-01-15T05:45:11;1.50;99.90
67777;DHT22;54576;52.020;5.536;2024-01-15T05:47:36;1.50;99.90
67777;DHT22;54576;52.020;5.536;2024-01-15T05:50:02;1.50;99.90
67777;DHT22;54576;52.020;5.536;2024-01-15T05:52:28;1.40;99.90
67777;DHT22;54576;52.020;5.536;2024-01-15T05:54:53;1.40;99.90
67777;DHT22;54576;52.020;5.536;2024-01-15T05:57:19;1.40;99.90
67777;DHT22;54576;52.020;5.536;2024-01-15T05:59:44;1.40;99.90
67777;DHT22;54576;52.020;5.536;2024-01-15T06:02:13;1.40;99.90
67777;DHT22;54576;52.020;5.536;2024-01-15T06:04:38;1.50;99.90
67777;DHT22;54576;52.020;5.536;2024-01-15T06:07:04;1.50;99.90
67777;DHT22;54576;52.020;5.536;2024-01-15T06:09:29;1.50;99.90
67777;DHT22;54576;52.020;5.536;2024-01-15T06:11:56;1.60;99.90
67777;DHT22;54576;52.020;5.536;2024-01-15T06:14:24;1.60;99.90
67777;DHT22;54576;52.020;5.536;2024-01-15T06:16:50;1.60;99.90
67777;DHT22;54576;52.020;5.536;2024-01-15T06:19:15;1.70;99.90
67777;DHT22;54576;52.020;5.536;2024-01-15T06:21:41;1.70;99.90
67777;DHT22;54576;52.020;5.536;2024-01-15T06:24:06;1.70;99.90
67777;DHT22;54576;52.020;5.536;2024-01-15T06:26:32;1.70;99.90
67777;DHT22;54576;52.020;5.536;2024-01-15T06:28:58;1.80;99.90
67777;DHT22;54576;52.020;5.536;2024-01-15T06:31:23;1.70;99.90
67777;DHT22;54576;52.020;5.536;2024-01-15T06:33:49;1.70;99.90
67777;DHT22;54576;52.020;5.536;2024-01-15T06:36:15;1.70;99.90
67777;DHT22;54576;52.020;5.536;2024-01-15T06:38:43;1.70;99.90
67777;DHT22;54576;52.020;5.536;2024-01-15T06:41:09;1.60;99.90
67777;DHT22;54576;52.020;5.536;2024-01-15T06:43:34;1.60;99.90
67777;DHT22;54576;52.020;5.536;2024-01-15T06:46:00;1.60;99.90
67777;DHT22;54576;52.020;5.536;2024-01-15T06:48:26;1.60;99.90
67777;DHT22;54576;52.020;5.536;2024-01-15T06:50:52;1.60;99.90
67777;DHT22;54576;52.020;5.536;2024-01-15T06:53:17;1.60;99.90
67777;DHT22;54576;52.020;5.536;2024-01-15T06:55:43;1.60;99.90
67777;DHT22;54576;52.020;5.536;2024-01-15T06:58:08;1.60;99.90
67777;DHT22;54576;52.020;5.536;2024-01-15T07:00:34;1.60;99.90
67777;DHT22;54576;52.020;5.536;2024-01-15T07:02:59;1.60;99.90
67777;DHT22;54576;52.020;5.536;2024-01-15T07:05:25;1.60;99.90
67777;DHT22;54576;52.020;5.536;2024-01-15T07:07:50;1.60;99.90
67777;DHT22;54576;52.020;5.536;2024-01-15T07:10:16;1.60;99.90
67777;DHT22;54576;52.020;5.536;2024-01-15T07:12:42;1.60;99.90
67777;DHT22;54576;52.020;5.536;2024-01-15T07:15:08;1.60;99.90
67777;DHT22;54576;52.020;5.536;2024-01-15T07:17:35;1.60;99.90
67777;DHT22;54576;52.020;5.536;2024-01-15T07:20:00;1.60;99.90
67777;DHT22;54576;52.020;5.536;2024-01-15T07:22:26;1.60;99.90
67777;DHT22;54576;52.020;5.536;2024-01-15T07:24:52;1.60;99.90
67777;DHT22;54576;52.020;5.536;2024-01-15T07:27:17;1.60;99.90
67777;DHT22;54576;52.020;5.536;2024-01-15T07:29:43;1.60;99.90
67777;DHT22;54576;52.020;5.536;2024-01-15T07:32:09;1.60;99.90
67777;DHT22;54576;52.020;5.536;2024-01-15T07:34:35;1.60;99.90
67777;DHT22;54576;52.020;5.536;2024-01-15T07:37:01;1.60;99.90
67777;DHT22;54576;52.020;5.536;2024-01-15T07:39:26;1.60;99.90
67777;DHT22;54576;52.020;5.536;2024-01-15T07:41:54;1.60;99.90
67777;DHT22;54576;52.020;5.536;2024-01-15T07:44:19;1.50;99.90
67777;DHT22;54576;52.020;5.536;2024-01-15T07:46:46;1.50;99.90
67777;DHT22;54576;52.020;5.536;2024-01-15T07:49:12;1.50;99.90
67777;DHT22;54576;52.020;5.536;2024-01-15T07:51:37;1.50;99.90
67777;DHT22;54576;52.020;5.536;2024-01-15T07:54:03;1.50;99.90
67777;DHT22;54576;52.020;5.536;2024-01-15T07:56:29;1.50;99.90
67777;DHT22;54576;52.020;5.536;2024-01-15T07:58:56;1.60;99.90
67777;DHT22;54576;52.020;5.536;2024-01-15T08:01:21;1.60;99.90
67777;DHT22;54576;52.020;5.536;2024-01-15T08:03:47;1.60;99.90
67777;DHT22;54576;52.020;5.536;2024-01-15T08:06:13;1.60;99.90
67777;DHT22;54576;52.020;5.536;2024-01-15T08:08:39;1.60;99.90
67777;DHT22;54576;52.020;5.536;2024-01-15T08:11:04;1.60;99.90
67777;DHT22;54576;52.020;5.536;2024-01-15T08:13:30;1.60;99.90
67777;DHT22;54576;52.020;5.536;2024-01-15T08:15:56;1.60;99.90
67777;DHT22;54576;52.020;5.536;2024-01-15T08:18:21;1.60;99.90
67777;DHT22;54576;52.020;5.536;2024-01-15T08:20:47;1.70;99.90
67777;DHT22;54576;52.020;5.536;2024-01-15T08:23:13;1.70;99.90
67777;DHT22;54576;52.020;5.536;2024-01-15T08:25:38;1.70;99.90
67777;DHT22;54576;52.020;5.536;2024-01-15T08:28:04;1.70;99.90
67777;DHT22;54576;52.020;5.536;2024-01-15T08:30:30;1.60;99.90
67777;DHT22;54576;52.020;5.536;2024-01-15T08:32:56;1.60;99.90
67777;DHT22;54576;52.020;5.536;2024-01-15T08:35:21;1.60;99.90
67777;DHT22;54576;52.020;5.536;2024-01-15T08:37:49;1.60;99.90
67777;DHT22;54576;52.020;5.536;2024-01-15T08:40:15;1.60;99.90
67777;DHT22;54576;52.020;5.536;2024-01-15T08:42:41;1.60;99.90
67777;DHT22;54576;52.020;5.536;2024-01-15T08:45:07;1.60;99.90
67777;DHT22;54576;52.020;5.536;2024-01-15T08:47:32;1.60;99.90
67777;DHT22;54576;52.020;5.536;2024-01-15T08:49:58;1.60;99.90
67777;DHT22;54576;52.020;5.536;2024-01-15T08:52:24;1.60;99.90
67777;DHT22;54576;52.020;5.536;2024-01-15T08:54:49;1.70;99.90
67777;DHT22;54576;52.020;5.536;2024-01-15T08:57:16;1.70;99.90
67777;DHT22;54576;52.020;5.536;2024-01-15T08:59:42;1.70;99.90
67777;DHT22;54576;52.020;5.536;2024-01-15T09:02:07;1.70;99.90
67777;DHT22;54576;52.020;5.536;2024-01-15T09:04:33;1.80;99.90
67777;DHT22;54576;52.020;5.536;2024-01-15T09:06:59;1.80;99.90
67777;DHT22;54576;52.020;5.536;2024-01-15T09:09:24;1.90;99.90
67777;DHT22;54576;52.020;5.536;2024-01-15T09:11:51;2.00;99.90
67777;DHT22;54576;52.020;5.536;2024-01-15T09:14:17;2.00;99.90
67777;DHT22;54576;52.020;5.536;2024-01-15T09:16:42;1.90;99.90
67777;DHT22;54576;52.020;5.536;2024-01-15T09:19:08;1.90;99.90
67777;DHT22;54576;52.020;5.536;2024-01-15T09:21:34;1.90;99.90
67777;DHT22;54576;52.020;5.536;2024-01-15T09:23:59;2.00;99.90
67777;DHT22;54576;52.020;5.536;2024-01-15T09:26:25;2.10;99.90
67777;DHT22;54576;52.020;5.536;2024-01-15T09:28:51;2.20;99.90
67777;DHT22;54576;52.020;5.536;2024-01-15T09:31:17;2.20;99.90
67777;DHT22;54576;52.020;5.536;2024-01-15T09:33:43;2.20;99.90
67777;DHT22;54576;52.020;5.536;2024-01-15T09:36:09;2.10;99.90
67777;DHT22;54576;52.020;5.536;2024-01-15T09:38:39;2.10;99.90
67777;DHT22;54576;52.020;5.536;2024-01-15T09:41:05;2.00;99.90
67777;DHT22;54576;52.020;5.536;2024-01-15T09:43:31;2.00;99.90
67777;DHT22;54576;52.020;5.536;2024-01-15T09:45:57;1.90;99.90
67777;DHT22;54576;52.020;5.536;2024-01-15T09:48:23;1.90;99.90
67777;DHT22;54576;52.020;5.536;2024-01-15T09:50:52;1.90;99.90
67777;DHT22;54576;52.020;5.536;2024-01-15T09:53:18;1.90;99.90
67777;DHT22;54576;52.020;5.536;2024-01-15T09:55:46;2.00;99.90
67777;DHT22;54576;52.020;5.536;2024-01-15T09:58:18;2.20;99.90
67777;DHT22;54576;52.020;5.536;2024-01-15T10:00:44;2.30;99.90
67777;DHT22;54576;52.020;5.536;2024-01-15T10:03:10;2.30;99.90
67777;DHT22;54576;52.020;5.536;2024-01-15T10:05:37;2.30;99.90
67777;DHT22;54576;52.020;5.536;2024-01-15T10:08:03;2.30;99.90
67777;DHT22;54576;52.020;5.536;2024-01-15T10:10:30;2.20;99.90
67777;DHT22;54576;52.020;5.536;2024-01-15T10:12:58;2.10;99.90
67777;DHT22;54576;52.020;5.536;2024-01-15T10:15:25;2.10;99.90
67777;DHT22;54576;52.020;5.536;2024-01-15T10:17:51;2.00;99.90
67777;DHT22;54576;52.020;5.536;2024-01-15T10:20:17;1.90;99.90
67777;DHT22;54576;52.020;5.536;2024-01-15T10:22:43;1.90;99.90
67777;DHT22;54576;52.020;5.536;2024-01-15T10:25:15;2.00;99.90
67777;DHT22;54576;52.020;5.536;2024-01-15T10:27:41;2.20;99.90
67777;DHT22;54576;52.020;5.536;2024-01-15T10:30:10;2.50;99.90
67777;DHT22;54576;52.020;5.536;2024-01-15T10:32:37;2.70;99.90
67777;DHT22;54576;52.020;5.536;2024-01-15T10:35:03;2.80;99.90
67777;DHT22;54576;52.020;5.536;2024-01-15T10:37:33;3.00;99.90
67777;DHT22;54576;52.020;5.536;2024-01-15T10:40:00;3.30;99.90
67777;DHT22;54576;52.020;5.536;2024-01-15T10:42:25;3.40;99.90
67777;DHT22;54576;52.020;5.536;2024-01-15T10:44:51;3.50;99.90
67777;DHT22;54576;52.020;5.536;2024-01-15T10:47:17;3.40;99.90
67777;DHT22;54576;52.020;5.536;2024-01-15T10:49:45;3.30;99.90
67777;DHT22;54576;52.020;5.536;2024-01-15T10:52:11;3.30;99.90
67777;DHT22;54576;52.020;5.536;2024-01-15T10:54:37;3.30;99.90
67777;DHT22;54576;52.020;5.536;2024-01-15T10:57:04;3.40;99.90
67777;DHT22;54576;52.020;5.536;2024-01-15T10:59:31;3.40;99.90
67777;DHT22;54576;52.020;5.536;2024-01-15T11:01:58;3.60;99.90
67777;DHT22;54576;52.020;5.536;2024-01-15T11:04:24;3.60;99.90
67777;DHT22;54576;52.020;5.536;2024-01-15T11:06:54;3.60;99.90
67777;DHT22;54576;52.020;5.536;2024-01-15T11:09:23;3.60;99.90
67777;DHT22;54576;52.020;5.536;2024-01-15T11:11:52;3.60;99.90
67777;DHT22;54576;52.020;5.536;2024-01-15T11:14:50;3.60;99.90
67777;DHT22;54576;52.020;5.536;2024-01-15T11:17:17;3.70;99.90
67777;DHT22;54576;52.020;5.536;2024-01-15T11:19:43;3.70;99.90
67777;DHT22;54576;52.020;5.536;2024-01-15T11:22:10;3.70;99.90
67777;DHT22;54576;52.020;5.536;2024-01-15T11:24:43;3.60;99.90
67777;DHT22;54576;52.020;5.536;2024-01-15T11:27:09;3.50;99.90
67777;DHT22;54576;52.020;5.536;2024-01-15T11:29:36;3.50;99.90
67777;DHT22;54576;52.020;5.536;2024-01-15T11:32:09;3.40;99.90
67777;DHT22;54576;52.020;5.536;2024-01-15T11:34:54;3.40;99.90
67777;DHT22;54576;52.020;5.536;2024-01-15T11:37:23;3.40;99.90
67777;DHT22;54576;52.020;5.536;2024-01-15T11:39:51;3.40;99.90
67777;DHT22;54576;52.020;5.536;2024-01-15T11:42:17;3.40;99.90
67777;DHT22;54576;52.020;5.536;2024-01-15T11:44:44;3.40;99.90
67777;DHT22;54576;52.020;5.536;2024-01-15T11:47:11;3.30;99.90
67777;DHT22;54576;52.020;5.536;2024-01-15T11:49:58;3.30;99.90
67777;DHT22;54576;52.020;5.536;2024-01-15T11:52:37;3.30;99.90
67777;DHT22;54576;52.020;5.536;2024-01-15T11:55:34;3.40;99.90
67777;DHT22;54576;52.020;5.536;2024-01-15T11:58:01;3.40;99.90
67777;DHT22;54576;52.020;5.536;2024-01-15T12:00:27;3.40;99.90
67777;DHT22;54576;52.020;5.536;2024-01-15T12:02:53;3.30;99.90
67777;DHT22;54576;52.020;5.536;2024-01-15T12:05:20;3.30;99.90
67777;DHT22;54576;52.020;5.536;2024-01-15T12:07:47;3.30;99.90
67777;DHT22;54576;52.020;5.536;2024-01-15T12:15:09;3.10;99.90
67777;DHT22;54576;52.020;5.536;2024-01-15T12:17:35;3.10;99.90
67777;DHT22;54576;52.020;5.536;2024-01-15T12:20:03;3.10;99.90
67777;DHT22;54576;52.020;5.536;2024-01-15T12:22:28;3.10;99.90
67777;DHT22;54576;52.020;5.536;2024-01-15T12:24:54;3.10;99.90
67777;DHT22;54576;52.020;5.536;2024-01-15T12:27:20;3.10;99.90
67777;DHT22;54576;52.020;5.536;2024-01-15T12:29:46;3.20;99.90
67777;DHT22;54576;52.020;5.536;2024-01-15T12:32:12;3.30;99.90
67777;DHT22;54576;52.020;5.536;2024-01-15T12:34:38;3.30;99.90
67777;DHT22;54576;52.020;5.536;2024-01-15T12:37:04;3.40;99.90
67777;DHT22;54576;52.020;5.536;2024-01-15T12:39:29;3.40;99.90
67777;DHT22;54576;52.020;5.536;2024-01-15T12:41:55;3.40;99.90
67777;DHT22;54576;52.020;5.536;2024-01-15T12:44:21;3.40;99.90
67777;DHT22;54576;52.020;5.536;2024-01-15T12:46:47;3.40;99.90
67777;DHT22;54576;52.020;5.536;2024-01-15T12:49:13;3.40;99.90
67777;DHT22;54576;52.020;5.536;2024-01-15T12:51:39;3.40;99.90
67777;DHT22;54576;52.020;5.536;2024-01-15T12:54:04;3.50;99.90
67777;DHT22;54576;52.020;5.536;2024-01-15T12:56:30;3.40;99.90
67777;DHT22;54576;52.020;5.536;2024-01-15T12:58:55;3.40;99.90
67777;DHT22;54576;52.020;5.536;2024-01-15T13:01:21;3.20;99.90
67777;DHT22;54576;52.020;5.536;2024-01-15T13:03:47;3.10;99.90
67777;DHT22;54576;52.020;5.536;2024-01-15T13:06:13;2.90;99.90
67777;DHT22;54576;52.020;5.536;2024-01-15T13:08:41;2.80;99.90
67777;DHT22;54576;52.020;5.536;2024-01-15T13:11:07;2.70;99.90
67777;DHT22;54576;52.020;5.536;2024-01-15T13:13:32;2.60;99.90
67777;DHT22;54576;52.020;5.536;2024-01-15T13:16:00;2.60;99.90
67777;DHT22;54576;52.020;5.536;2024-01-15T13:18:25;2.60;99.90
67777;DHT22;54576;52.020;5.536;2024-01-15T13:20:51;2.60;99.90
67777;DHT22;54576;52.020;5.536;2024-01-15T13:23:16;2.60;99.90
67777;DHT22;54576;52.020;5.536;2024-01-15T13:25:42;2.60;99.90
67777;DHT22;54576;52.020;5.536;2024-01-15T13:28:14;2.70;99.90
67777;DHT22;54576;52.020;5.536;2024-01-15T13:30:40;2.70;99.90
67777;DHT22;54576;52.020;5.536;2024-01-15T13:33:06;2.70;99.90
67777;DHT22;54576;52.020;5.536;2024-01-15T13:35:33;2.70;99.90
67777;DHT22;54576;52.020;5.536;2024-01-15T13:38:01;2.70;99.90
67777;DHT22;54576;52.020;5.536;2024-01-15T13:40:26;2.70;99.90
67777;DHT22;54576;52.020;5.536;2024-01-15T13:42:52;2.80;99.90
67777;DHT22;54576;52.020;5.536;2024-01-15T13:45:19;2.80;99.90
67777;DHT22;54576;52.020;5.536;2024-01-15T13:47:45;2.90;99.90
67777;DHT22;54576;52.020;5.536;2024-01-15T13:50:14;2.90;99.90
67777;DHT22;54576;52.020;5.536;2024-01-15T13:52:40;2.90;99.90
67777;DHT22;54576;52.020;5.536;2024-01-15T13:55:06;2.90;99.90
67777;DHT22;54576;52.020;5.536;2024-01-15T13:57:34;2.90;99.90
67777;DHT22;54576;52.020;5.536;2024-01-15T13:59:59;2.80;99.90
67777;DHT22;54576;52.020;5.536;2024-01-15T14:02:25;2.80;99.90
67777;DHT22;54576;52.020;5.536;2024-01-15T14:04:51;2.80;99.90
67777;DHT22;54576;52.020;5.536;2024-01-15T14:07:16;2.80;99.90
67777;DHT22;54576;52.020;5.536;2024-01-15T14:09:42;2.80;99.90
67777;DHT22;54576;52.020;5.536;2024-01-15T14:12:07;2.80;99.90
67777;DHT22;54576;52.020;5.536;2024-01-15T14:14:33;2.90;99.90
67777;DHT22;54576;52.020;5.536;2024-01-15T14:16:59;2.90;99.90
67777;DHT22;54576;52.020;5.536;2024-01-15T14:19:27;2.90;99.90
67777;DHT22;54576;52.020;5.536;2024-01-15T14:21:53;2.80;99.90
67777;DHT22;54576;52.020;5.536;2024-01-15T14:24:18;2.80;99.90
67777;DHT22;54576;52.020;5.536;2024-01-15T14:26:44;2.80;99.90
67777;DHT22;54576;52.020;5.536;2024-01-15T14:29:09;2.80;99.90
67777;DHT22;54576;52.020;5.536;2024-01-15T14:31:35;2.80;99.90
67777;DHT22;54576;52.020;5.536;2024-01-15T14:34:00;2.90;99.90
67777;DHT22;54576;52.020;5.536;2024-01-15T14:36:28;3.00;99.90
67777;DHT22;54576;52.020;5.536;2024-01-15T14:38:53;3.00;99.90
67777;DHT22;54576;52.020;5.536;2024-01-15T14:41:19;3.00;99.90
67777;DHT22;54576;52.020;5.536;2024-01-15T14:43:44;2.90;99.90
67777;DHT22;54576;52.020;5.536;2024-01-15T14:46:10;2.90;99.90
67777;DHT22;54576;52.020;5.536;2024-01-15T14:48:36;2.80;99.90
67777;DHT22;54576;52.020;5.536;2024-01-15T14:51:02;2.80;99.90
67777;DHT22;54576;52.020;5.536;2024-01-15T14:53:28;2.80;99.90
67777;DHT22;54576;52.020;5.536;2024-01-15T14:56:03;2.70;99.90
67777;DHT22;54576;52.020;5.536;2024-01-15T14:58:32;2.70;99.90
67777;DHT22;54576;52.020;5.536;2024-01-15T15:00:58;2.70;99.90
67777;DHT22;54576;52.020;5.536;2024-01-15T15:03:24;2.70;99.90
67777;DHT22;54576;52.020;5.536;2024-01-15T15:05:59;2.70;99.90
67777;DHT22;54576;52.020;5.536;2024-01-15T15:08:31;2.60;99.90
67777;DHT22;54576;52.020;5.536;2024-01-15T15:11:08;2.60;99.90
67777;DHT22;54576;52.020;5.536;2024-01-15T15:13:37;2.60;99.90
67777;DHT22;54576;52.020;5.536;2024-01-15T15:16:06;2.50;99.90
67777;DHT22;54576;52.020;5.536;2024-01-15T15:18:51;2.50;99.90
67777;DHT22;54576;52.020;5.536;2024-01-15T15:21:17;2.50;99.90
67777;DHT22;54576;52.020;5.536;2024-01-15T15:23:43;2.50;99.90
67777;DHT22;54576;52.020;5.536;2024-01-15T15:26:12;2.40;99.90
67777;DHT22;54576;52.020;5.536;2024-01-15T15:28:56;2.40;99.90
67777;DHT22;54576;52.020;5.536;2024-01-15T15:31:25;2.30;99.90
67777;DHT22;54576;52.020;5.536;2024-01-15T15:33:51;2.30;99.90
67777;DHT22;54576;52.020;5.536;2024-01-15T15:36:20;2.30;99.90
67777;DHT22;54576;52.020;5.536;2024-01-15T15:38:49;2.20;99.90
67777;DHT22;54576;52.020;5.536;2024-01-15T15:41:24;2.10;99.90
67777;DHT22;54576;52.020;5.536;2024-01-15T15:43:58;2.20;99.90
67777;DHT22;54576;52.020;5.536;2024-01-15T15:46:24;2.10;99.90